sensor_id;sensor_type;location;lat;lon;timestamp;P1;durP1;ratioP1;P2;durP2;ratioP2
80823;SDS011;70538;59.122;37.876;2023-08-24T00:00:58;5.53;;;1.27;;
80823;SDS011;70538;59.122;37.876;2023-08-24T00:03:26;5.27;;;1.40;;
80823;SDS011;70538;59.122;37.876;2023-08-24T00:05:54;6.07;;;1.48;;
80823;SDS011;70538;59.122;37.876;2023-08-24T00:08:22;5.50;;;1.40;;
80823;SDS011;70538;59.122;37.876;2023-08-24T00:10:50;5.95;;;1.50;;
80823;SDS011;70538;59.122;37.876;2023-08-24T00:13:18;5.45;;;1.50;;
80823;SDS011;70538;59.122;37.876;2023-08-24T00:15:46;5.80;;;1.50;;
80823;SDS011;70538;59.122;37.876;2023-08-24T00:18:14;5.88;;;1.40;;
80823;SDS011;70538;59.122;37.876;2023-08-24T00:20:42;4.40;;;1.20;;
80823;SDS011;70538;59.122;37.876;2023-08-24T00:23:10;5.15;;;1.30;;
80823;SDS011;70538;59.122;37.876;2023-08-24T00:25:38;5.70;;;1.42;;
80823;SDS011;70538;59.122;37.876;2023-08-24T00:28:08;4.87;;;1.20;;
80823;SDS011;70538;59.122;37.876;2023-08-24T00:30:36;5.85;;;1.40;;
80823;SDS011;70538;59.122;37.876;2023-08-24T00:33:04;7.03;;;1.50;;
80823;SDS011;70538;59.122;37.876;2023-08-24T00:35:32;5.90;;;1.40;;
80823;SDS011;70538;59.122;37.876;2023-08-24T00:38:01;4.80;;;1.20;;
80823;SDS011;70538;59.122;37.876;2023-08-24T00:40:29;4.60;;;1.40;;
80823;SDS011;70538;59.122;37.876;2023-08-24T00:42:56;5.80;;;1.50;;
80823;SDS011;70538;59.122;37.876;2023-08-24T00:45:24;4.85;;;1.42;;
80823;SDS011;70538;59.122;37.876;2023-08-24T00:47:53;5.78;;;1.23;;
80823;SDS011;70538;59.122;37.876;2023-08-24T00:50:21;5.72;;;1.60;;
80823;SDS011;70538;59.122;37.876;2023-08-24T00:52:49;6.27;;;1.40;;
80823;SDS011;70538;59.122;37.876;2023-08-24T00:55:18;7.50;;;1.83;;
80823;SDS011;70538;59.122;37.876;2023-08-24T00:57:48;5.82;;;1.90;;
80823;SDS011;70538;59.122;37.876;2023-08-24T01:00:18;6.40;;;1.90;;
80823;SDS011;70538;59.122;37.876;2023-08-24T01:02:49;6.47;;;1.90;;
80823;SDS011;70538;59.122;37.876;2023-08-24T01:05:17;5.67;;;1.60;;
80823;SDS011;70538;59.122;37.876;2023-08-24T01:07:48;5.97;;;1.80;;
80823;SDS011;70538;59.122;37.876;2023-08-24T01:10:16;5.32;;;1.52;;
80823;SDS011;70538;59.122;37.876;2023-08-24T01:12:48;6.82;;;1.40;;
80823;SDS011;70538;59.122;37.876;2023-08-24T01:15:18;5.03;;;1.30;;
80823;SDS011;70538;59.122;37.876;2023-08-24T01:17:53;5.87;;;1.37;;
80823;SDS011;70538;59.122;37.876;2023-08-24T01:20:23;5.15;;;1.40;;
80823;SDS011;70538;59.122;37.876;2023-08-24T01:23:02;6.97;;;1.35;;
80823;SDS011;70538;59.122;37.876;2023-08-24T01:25:46;5.03;;;1.20;;
80823;SDS011;70538;59.122;37.876;2023-08-24T01:28:21;4.70;;;1.40;;
80823;SDS011;70538;59.122;37.876;2023-08-24T01:30:50;4.60;;;1.30;;
80823;SDS011;70538;59.122;37.876;2023-08-24T01:33:18;4.90;;;1.30;;
80823;SDS011;70538;59.122;37.876;2023-08-24T01:35:46;4.68;;;1.33;;
80823;SDS011;70538;59.122;37.876;2023-08-24T01:38:13;3.97;;;1.10;;
80823;SDS011;70538;59.122;37.876;2023-08-24T01:43:21;7.33;;;1.30;;
80823;SDS011;70538;59.122;37.876;2023-08-24T01:46:11;6.85;;;1.48;;
80823;SDS011;70538;59.122;37.876;2023-08-24T01:48:43;6.05;;;1.20;;
80823;SDS011;70538;59.122;37.876;2023-08-24T01:51:12;5.50;;;1.30;;
80823;SDS011;70538;59.122;37.876;2023-08-24T01:53:40;6.32;;;1.27;;
80823;SDS011;70538;59.122;37.876;2023-08-24T01:56:12;5.17;;;1.27;;
80823;SDS011;70538;59.122;37.876;2023-08-24T01:58:42;5.80;;;1.20;;
80823;SDS011;70538;59.122;37.876;2023-08-24T02:01:10;6.43;;;1.77;;
80823;SDS011;70538;59.122;37.876;2023-08-24T02:03:40;5.93;;;1.55;;
80823;SDS011;70538;59.122;37.876;2023-08-24T02:06:08;5.18;;;1.40;;
80823;SDS011;70538;59.122;37.876;2023-08-24T02:08:36;6.10;;;2.20;;
80823;SDS011;70538;59.122;37.876;2023-08-24T02:11:05;6.95;;;1.60;;
80823;SDS011;70538;59.122;37.876;2023-08-24T02:13:35;5.93;;;1.40;;
80823;SDS011;70538;59.122;37.876;2023-08-24T02:16:08;6.60;;;1.35;;
80823;SDS011;70538;59.122;37.876;2023-08-24T02:18:37;5.97;;;1.40;;
80823;SDS011;70538;59.122;37.876;2023-08-24T02:21:08;5.47;;;1.40;;
80823;SDS011;70538;59.122;37.876;2023-08-24T02:23:39;4.93;;;1.35;;
80823;SDS011;70538;59.122;37.876;2023-08-24T02:26:08;8.43;;;1.50;;
80823;SDS011;70538;59.122;37.876;2023-08-24T02:28:37;4.70;;;1.40;;
80823;SDS011;70538;59.122;37.876;2023-08-24T02:31:05;6.72;;;1.50;;
80823;SDS011;70538;59.122;37.876;2023-08-24T02:33:34;5.10;;;1.40;;
80823;SDS011;70538;59.122;37.876;2023-08-24T02:36:04;6.68;;;1.80;;
80823;SDS011;70538;59.122;37.876;2023-08-24T02:38:32;5.65;;;1.55;;
80823;SDS011;70538;59.122;37.876;2023-08-24T02:41:04;5.13;;;1.60;;
80823;SDS011;70538;59.122;37.876;2023-08-24T02:43:33;8.50;;;1.55;;
80823;SDS011;70538;59.122;37.876;2023-08-24T02:46:05;5.67;;;1.50;;
80823;SDS011;70538;59.122;37.876;2023-08-24T02:48:35;6.18;;;1.58;;
80823;SDS011;70538;59.122;37.876;2023-08-24T02:51:04;10.02;;;1.92;;
80823;SDS011;70538;59.122;37.876;2023-08-24T02:53:33;4.95;;;1.38;;
80823;SDS011;70538;59.122;37.876;2023-08-24T02:56:01;7.47;;;1.63;;
80823;SDS011;70538;59.122;37.876;2023-08-24T02:58:29;6.73;;;1.90;;
80823;SDS011;70538;59.122;37.876;2023-08-24T03:00:57;5.60;;;1.38;;
80823;SDS011;70538;59.122;37.876;2023-08-24T03:03:25;6.72;;;1.80;;
80823;SDS011;70538;59.122;37.876;2023-08-24T03:05:56;6.18;;;1.70;;
80823;SDS011;70538;59.122;37.876;2023-08-24T03:08:26;7.28;;;1.75;;
80823;SDS011;70538;59.122;37.876;2023-08-24T03:10:54;5.70;;;1.93;;
80823;SDS011;70538;59.122;37.876;2023-08-24T03:13:22;9.02;;;2.03;;
80823;SDS011;70538;59.122;37.876;2023-08-24T03:15:51;7.38;;;2.20;;
80823;SDS011;70538;59.122;37.876;2023-08-24T03:18:19;7.88;;;1.95;;
80823;SDS011;70538;59.122;37.876;2023-08-24T03:20:48;8.15;;;1.95;;
80823;SDS011;70538;59.122;37.876;2023-08-24T03:23:16;7.90;;;1.77;;
80823;SDS011;70538;59.122;37.876;2023-08-24T03:25:45;7.20;;;2.13;;
80823;SDS011;70538;59.122;37.876;2023-08-24T03:28:13;22.83;;;2.45;;
80823;SDS011;70538;59.122;37.876;2023-08-24T03:30:48;8.10;;;2.30;;
80823;SDS011;70538;59.122;37.876;2023-08-24T03:33:19;9.50;;;2.90;;
80823;SDS011;70538;59.122;37.876;2023-08-24T03:35:48;11.17;;;2.37;;
80823;SDS011;70538;59.122;37.876;2023-08-24T03:38:17;9.18;;;2.60;;
80823;SDS011;70538;59.122;37.876;2023-08-24T03:40:45;11.23;;;3.03;;
80823;SDS011;70538;59.122;37.876;2023-08-24T03:43:12;9.55;;;2.47;;
80823;SDS011;70538;59.122;37.876;2023-08-24T03:45:41;7.75;;;2.22;;
80823;SDS011;70538;59.122;37.876;2023-08-24T03:48:10;9.60;;;2.23;;
80823;SDS011;70538;59.122;37.876;2023-08-24T03:50:44;8.45;;;2.03;;
80823;SDS011;70538;59.122;37.876;2023-08-24T03:53:13;11.18;;;2.10;;
80823;SDS011;70538;59.122;37.876;2023-08-24T03:55:41;11.52;;;2.55;;
80823;SDS011;70538;59.122;37.876;2023-08-24T03:58:15;9.55;;;2.40;;
80823;SDS011;70538;59.122;37.876;2023-08-24T04:00:46;7.57;;;2.13;;
80823;SDS011;70538;59.122;37.876;2023-08-24T04:03:14;7.45;;;2.65;;
80823;SDS011;70538;59.122;37.876;2023-08-24T04:05:42;9.25;;;2.88;;
80823;SDS011;70538;59.122;37.876;2023-08-24T04:08:10;12.13;;;3.00;;
80823;SDS011;70538;59.122;37.876;2023-08-24T04:10:38;7.55;;;2.35;;
80823;SDS011;70538;59.122;37.876;2023-08-24T04:13:06;9.67;;;2.93;;
80823;SDS011;70538;59.122;37.876;2023-08-24T04:15:35;8.43;;;2.42;;
80823;SDS011;70538;59.122;37.876;2023-08-24T04:18:03;15.40;;;3.65;;
80823;SDS011;70538;59.122;37.876;2023-08-24T04:20:31;11.70;;;3.13;;
80823;SDS011;70538;59.122;37.876;2023-08-24T04:23:00;14.63;;;3.15;;
80823;SDS011;70538;59.122;37.876;2023-08-24T04:25:31;13.20;;;2.90;;
80823;SDS011;70538;59.122;37.876;2023-08-24T04:27:59;12.85;;;3.40;;
80823;SDS011;70538;59.122;37.876;2023-08-24T04:30:27;14.85;;;3.10;;
80823;SDS011;70538;59.122;37.876;2023-08-24T04:32:55;13.02;;;5.30;;
80823;SDS011;70538;59.122;37.876;2023-08-24T04:35:24;14.00;;;3.40;;
80823;SDS011;70538;59.122;37.876;2023-08-24T04:37:54;13.03;;;3.23;;
80823;SDS011;70538;59.122;37.876;2023-08-24T04:40:23;7.07;;;2.60;;
80823;SDS011;70538;59.122;37.876;2023-08-24T04:42:51;9.25;;;2.30;;
80823;SDS011;70538;59.122;37.876;2023-08-24T04:45:19;8.65;;;2.30;;
80823;SDS011;70538;59.122;37.876;2023-08-24T04:47:48;13.07;;;2.88;;
80823;SDS011;70538;59.122;37.876;2023-08-24T04:50:16;7.60;;;1.80;;
80823;SDS011;70538;59.122;37.876;2023-08-24T04:52:45;10.38;;;2.30;;
80823;SDS011;70538;59.122;37.876;2023-08-24T04:55:13;9.02;;;2.08;;
80823;SDS011;70538;59.122;37.876;2023-08-24T04:57:42;10.00;;;2.20;;
80823;SDS011;70538;59.122;37.876;2023-08-24T05:00:12;19.48;;;3.17;;
80823;SDS011;70538;59.122;37.876;2023-08-24T05:02:43;14.27;;;3.30;;
80823;SDS011;70538;59.122;37.876;2023-08-24T05:05:12;11.35;;;2.33;;
80823;SDS011;70538;59.122;37.876;2023-08-24T05:07:44;7.93;;;2.05;;
80823;SDS011;70538;59.122;37.876;2023-08-24T05:10:14;8.30;;;2.38;;
80823;SDS011;70538;59.122;37.876;2023-08-24T05:12:42;5.85;;;2.13;;
80823;SDS011;70538;59.122;37.876;2023-08-24T05:15:10;9.03;;;2.53;;
80823;SDS011;70538;59.122;37.876;2023-08-24T05:17:38;14.65;;;2.50;;
80823;SDS011;70538;59.122;37.876;2023-08-24T05:20:06;14.55;;;2.85;;
80823;SDS011;70538;59.122;37.876;2023-08-24T05:22:39;6.60;;;1.70;;
80823;SDS011;70538;59.122;37.876;2023-08-24T05:25:07;5.72;;;1.80;;
80823;SDS011;70538;59.122;37.876;2023-08-24T05:27:34;7.33;;;1.60;;
80823;SDS011;70538;59.122;37.876;2023-08-24T05:30:02;11.90;;;1.80;;
80823;SDS011;70538;59.122;37.876;2023-08-24T05:32:32;9.05;;;1.70;;
80823;SDS011;70538;59.122;37.876;2023-08-24T05:35:01;8.82;;;1.70;;
80823;SDS011;70538;59.122;37.876;2023-08-24T05:37:29;5.00;;;1.48;;
80823;SDS011;70538;59.122;37.876;2023-08-24T05:39:57;7.93;;;1.60;;
80823;SDS011;70538;59.122;37.876;2023-08-24T05:42:24;7.38;;;1.75;;
80823;SDS011;70538;59.122;37.876;2023-08-24T05:44:53;10.82;;;1.75;;
80823;SDS011;70538;59.122;37.876;2023-08-24T05:47:21;8.32;;;2.50;;
80823;SDS011;70538;59.122;37.876;2023-08-24T05:49:49;7.95;;;1.70;;
80823;SDS011;70538;59.122;37.876;2023-08-24T05:52:18;12.93;;;1.83;;
80823;SDS011;70538;59.122;37.876;2023-08-24T05:54:45;10.50;;;2.05;;
80823;SDS011;70538;59.122;37.876;2023-08-24T05:57:13;20.25;;;2.28;;
80823;SDS011;70538;59.122;37.876;2023-08-24T05:59:41;11.90;;;2.92;;
80823;SDS011;70538;59.122;37.876;2023-08-24T06:02:09;6.68;;;2.10;;
80823;SDS011;70538;59.122;37.876;2023-08-24T06:04:38;10.47;;;2.13;;
80823;SDS011;70538;59.122;37.876;2023-08-24T06:07:06;8.73;;;1.58;;
80823;SDS011;70538;59.122;37.876;2023-08-24T06:09:34;9.23;;;2.17;;
80823;SDS011;70538;59.122;37.876;2023-08-24T06:12:05;7.00;;;2.20;;
80823;SDS011;70538;59.122;37.876;2023-08-24T06:14:34;9.40;;;1.88;;
80823;SDS011;70538;59.122;37.876;2023-08-24T06:17:05;7.53;;;1.90;;
80823;SDS011;70538;59.122;37.876;2023-08-24T06:19:33;7.20;;;1.60;;
80823;SDS011;70538;59.122;37.876;2023-08-24T06:22:01;9.00;;;1.83;;
80823;SDS011;70538;59.122;37.876;2023-08-24T06:24:30;8.02;;;1.50;;
80823;SDS011;70538;59.122;37.876;2023-08-24T06:26:58;6.78;;;1.77;;
80823;SDS011;70538;59.122;37.876;2023-08-24T06:29:30;8.70;;;1.50;;
80823;SDS011;70538;59.122;37.876;2023-08-24T06:31:58;8.35;;;1.30;;
80823;SDS011;70538;59.122;37.876;2023-08-24T06:34:26;6.00;;;1.38;;
80823;SDS011;70538;59.122;37.876;2023-08-24T06:36:53;16.85;;;1.83;;
80823;SDS011;70538;59.122;37.876;2023-08-24T06:39:21;7.28;;;1.48;;
80823;SDS011;70538;59.122;37.876;2023-08-24T06:41:52;5.07;;;1.30;;
80823;SDS011;70538;59.122;37.876;2023-08-24T06:44:19;11.20;;;2.10;;
80823;SDS011;70538;59.122;37.876;2023-08-24T06:46:47;6.72;;;1.60;;
80823;SDS011;70538;59.122;37.876;2023-08-24T06:49:16;7.20;;;1.60;;
80823;SDS011;70538;59.122;37.876;2023-08-24T06:51:43;6.70;;;1.30;;
80823;SDS011;70538;59.122;37.876;2023-08-24T06:54:11;10.27;;;1.87;;
80823;SDS011;70538;59.122;37.876;2023-08-24T06:56:41;6.07;;;1.30;;
80823;SDS011;70538;59.122;37.876;2023-08-24T06:59:09;12.55;;;2.10;;
80823;SDS011;70538;59.122;37.876;2023-08-24T07:01:40;8.05;;;1.30;;
80823;SDS011;70538;59.122;37.876;2023-08-24T07:04:08;5.90;;;1.38;;
80823;SDS011;70538;59.122;37.876;2023-08-24T07:06:38;7.70;;;1.60;;
80823;SDS011;70538;59.122;37.876;2023-08-24T07:09:07;12.25;;;1.80;;
80823;SDS011;70538;59.122;37.876;2023-08-24T07:11:35;6.32;;;1.50;;
80823;SDS011;70538;59.122;37.876;2023-08-24T07:14:03;7.40;;;1.70;;
80823;SDS011;70538;59.122;37.876;2023-08-24T07:16:32;7.20;;;1.20;;
80823;SDS011;70538;59.122;37.876;2023-08-24T07:19:00;7.93;;;1.17;;
80823;SDS011;70538;59.122;37.876;2023-08-24T07:21:31;4.55;;;1.10;;
80823;SDS011;70538;59.122;37.876;2023-08-24T07:23:59;6.05;;;1.38;;
80823;SDS011;70538;59.122;37.876;2023-08-24T07:26:31;5.00;;;1.30;;
80823;SDS011;70538;59.122;37.876;2023-08-24T07:29:06;5.43;;;1.17;;
80823;SDS011;70538;59.122;37.876;2023-08-24T07:31:34;5.43;;;1.23;;
80823;SDS011;70538;59.122;37.876;2023-08-24T07:34:05;5.95;;;1.40;;
80823;SDS011;70538;59.122;37.876;2023-08-24T07:36:33;7.65;;;1.10;;
80823;SDS011;70538;59.122;37.876;2023-08-24T07:39:01;5.43;;;1.02;;
80823;SDS011;70538;59.122;37.876;2023-08-24T07:41:29;4.60;;;1.20;;
80823;SDS011;70538;59.122;37.876;2023-08-24T07:43:57;6.60;;;1.00;;
80823;SDS011;70538;59.122;37.876;2023-08-24T07:46:25;6.57;;;1.20;;
80823;SDS011;70538;59.122;37.876;2023-08-24T07:48:53;5.15;;;1.38;;
80823;SDS011;70538;59.122;37.876;2023-08-24T07:51:23;6.53;;;1.17;;
80823;SDS011;70538;59.122;37.876;2023-08-24T07:53:51;4.82;;;1.13;;
80823;SDS011;70538;59.122;37.876;2023-08-24T07:56:19;8.50;;;1.50;;
80823;SDS011;70538;59.122;37.876;2023-08-24T07:58:47;7.97;;;2.67;;
80823;SDS011;70538;59.122;37.876;2023-08-24T08:01:15;7.20;;;1.50;;
80823;SDS011;70538;59.122;37.876;2023-08-24T08:03:43;5.63;;;1.25;;
80823;SDS011;70538;59.122;37.876;2023-08-24T08:06:11;7.22;;;1.40;;
80823;SDS011;70538;59.122;37.876;2023-08-24T08:08:40;5.40;;;1.27;;
80823;SDS011;70538;59.122;37.876;2023-08-24T08:11:11;9.32;;;1.40;;
80823;SDS011;70538;59.122;37.876;2023-08-24T08:13:40;6.78;;;1.20;;
80823;SDS011;70538;59.122;37.876;2023-08-24T08:16:07;4.95;;;1.20;;
80823;SDS011;70538;59.122;37.876;2023-08-24T08:18:36;16.45;;;2.60;;
80823;SDS011;70538;59.122;37.876;2023-08-24T08:21:15;5.77;;;1.23;;
80823;SDS011;70538;59.122;37.876;2023-08-24T08:23:49;7.28;;;1.02;;
80823;SDS011;70538;59.122;37.876;2023-08-24T08:26:17;7.63;;;1.52;;
80823;SDS011;70538;59.122;37.876;2023-08-24T08:28:46;7.10;;;1.45;;
80823;SDS011;70538;59.122;37.876;2023-08-24T08:31:13;6.22;;;1.30;;
80823;SDS011;70538;59.122;37.876;2023-08-24T08:33:41;6.17;;;1.50;;
80823;SDS011;70538;59.122;37.876;2023-08-24T08:36:09;6.63;;;1.50;;
80823;SDS011;70538;59.122;37.876;2023-08-24T08:38:37;10.30;;;1.40;;
80823;SDS011;70538;59.122;37.876;2023-08-24T08:41:05;8.60;;;1.67;;
80823;SDS011;70538;59.122;37.876;2023-08-24T08:43:34;10.60;;;1.48;;
80823;SDS011;70538;59.122;37.876;2023-08-24T08:46:05;14.47;;;1.90;;
80823;SDS011;70538;59.122;37.876;2023-08-24T08:48:33;10.07;;;1.85;;
80823;SDS011;70538;59.122;37.876;2023-08-24T08:51:02;7.25;;;1.70;;
80823;SDS011;70538;59.122;37.876;2023-08-24T08:53:30;5.85;;;1.48;;
80823;SDS011;70538;59.122;37.876;2023-08-24T08:55:59;11.90;;;1.98;;
80823;SDS011;70538;59.122;37.876;2023-08-24T08:58:31;4.80;;;1.17;;
80823;SDS011;70538;59.122;37.876;2023-08-24T09:01:02;4.95;;;1.30;;
80823;SDS011;70538;59.122;37.876;2023-08-24T09:03:31;4.55;;;1.35;;
80823;SDS011;70538;59.122;37.876;2023-08-24T09:05:59;7.13;;;1.70;;
80823;SDS011;70538;59.122;37.876;2023-08-24T09:08:27;6.43;;;1.45;;
80823;SDS011;70538;59.122;37.876;2023-08-24T09:10:58;6.87;;;1.27;;
80823;SDS011;70538;59.122;37.876;2023-08-24T09:13:26;4.57;;;1.13;;
80823;SDS011;70538;59.122;37.876;2023-08-24T09:15:54;7.63;;;1.20;;
80823;SDS011;70538;59.122;37.876;2023-08-24T09:18:36;9.48;;;1.65;;
80823;SDS011;70538;59.122;37.876;2023-08-24T09:21:15;11.02;;;1.83;;
80823;SDS011;70538;59.122;37.876;2023-08-24T09:23:44;10.00;;;1.60;;
80823;SDS011;70538;59.122;37.876;2023-08-24T09:26:31;5.80;;;1.50;;
80823;SDS011;70538;59.122;37.876;2023-08-24T09:29:15;7.22;;;1.17;;
80823;SDS011;70538;59.122;37.876;2023-08-24T09:31:43;6.40;;;1.42;;
80823;SDS011;70538;59.122;37.876;2023-08-24T09:34:15;6.70;;;1.38;;
80823;SDS011;70538;59.122;37.876;2023-08-24T09:36:49;9.67;;;1.80;;
80823;SDS011;70538;59.122;37.876;2023-08-24T09:39:18;10.68;;;1.40;;
80823;SDS011;70538;59.122;37.876;2023-08-24T09:41:48;5.20;;;1.33;;
80823;SDS011;70538;59.122;37.876;2023-08-24T09:44:17;4.15;;;1.20;;
80823;SDS011;70538;59.122;37.876;2023-08-24T09:46:45;6.10;;;1.50;;
80823;SDS011;70538;59.122;37.876;2023-08-24T09:49:13;8.43;;;1.43;;
80823;SDS011;70538;59.122;37.876;2023-08-24T09:51:41;7.72;;;1.33;;
80823;SDS011;70538;59.122;37.876;2023-08-24T09:54:12;8.27;;;1.30;;
80823;SDS011;70538;59.122;37.876;2023-08-24T09:56:42;5.38;;;1.60;;
80823;SDS011;70538;59.122;37.876;2023-08-24T09:59:15;7.40;;;1.50;;
80823;SDS011;70538;59.122;37.876;2023-08-24T10:01:49;9.20;;;1.50;;
80823;SDS011;70538;59.122;37.876;2023-08-24T10:04:21;9.75;;;1.77;;
80823;SDS011;70538;59.122;37.876;2023-08-24T10:07:08;8.13;;;1.60;;
80823;SDS011;70538;59.122;37.876;2023-08-24T10:12:23;6.88;;;1.95;;
80823;SDS011;70538;59.122;37.876;2023-08-24T10:17:24;10.73;;;2.50;;
80823;SDS011;70538;59.122;37.876;2023-08-24T10:19:52;11.55;;;3.47;;
80823;SDS011;70538;59.122;37.876;2023-08-24T10:22:23;13.10;;;3.13;;
80823;SDS011;70538;59.122;37.876;2023-08-24T10:24:51;9.38;;;2.22;;
80823;SDS011;70538;59.122;37.876;2023-08-24T10:27:22;6.63;;;1.53;;
80823;SDS011;70538;59.122;37.876;2023-08-24T10:29:53;6.65;;;1.75;;
80823;SDS011;70538;59.122;37.876;2023-08-24T10:32:21;6.30;;;1.65;;
80823;SDS011;70538;59.122;37.876;2023-08-24T10:34:51;5.75;;;1.40;;
80823;SDS011;70538;59.122;37.876;2023-08-24T10:37:26;6.53;;;1.50;;
80823;SDS011;70538;59.122;37.876;2023-08-24T10:39:54;8.20;;;1.40;;
80823;SDS011;70538;59.122;37.876;2023-08-24T10:42:22;8.65;;;2.03;;
80823;SDS011;70538;59.122;37.876;2023-08-24T10:44:53;11.85;;;2.17;;
80823;SDS011;70538;59.122;37.876;2023-08-24T10:47:22;6.70;;;1.70;;
80823;SDS011;70538;59.122;37.876;2023-08-24T10:52:31;9.43;;;1.70;;
80823;SDS011;70538;59.122;37.876;2023-08-24T10:55:02;10.82;;;2.22;;
80823;SDS011;70538;59.122;37.876;2023-08-24T10:57:36;8.40;;;2.28;;
80823;SDS011;70538;59.122;37.876;2023-08-24T11:00:15;9.60;;;2.70;;
80823;SDS011;70538;59.122;37.876;2023-08-24T11:02:50;10.93;;;2.47;;
80823;SDS011;70538;59.122;37.876;2023-08-24T11:05:27;9.23;;;3.13;;
80823;SDS011;70538;59.122;37.876;2023-08-24T11:08:04;8.30;;;2.28;;
80823;SDS011;70538;59.122;37.876;2023-08-24T11:15:39;12.52;;;4.00;;
80823;SDS011;70538;59.122;37.876;2023-08-24T11:23:24;5.47;;;1.48;;
80823;SDS011;70538;59.122;37.876;2023-08-24T11:25:54;6.60;;;1.38;;
80823;SDS011;70538;59.122;37.876;2023-08-24T11:28:26;6.72;;;1.70;;
80823;SDS011;70538;59.122;37.876;2023-08-24T11:30:56;6.53;;;1.77;;
80823;SDS011;70538;59.122;37.876;2023-08-24T11:33:28;7.40;;;1.90;;
80823;SDS011;70538;59.122;37.876;2023-08-24T11:36:02;6.43;;;1.90;;
80823;SDS011;70538;59.122;37.876;2023-08-24T11:38:42;7.15;;;2.15;;
80823;SDS011;70538;59.122;37.876;2023-08-24T11:41:11;6.50;;;1.95;;
80823;SDS011;70538;59.122;37.876;2023-08-24T11:43:41;6.20;;;1.83;;
80823;SDS011;70538;59.122;37.876;2023-08-24T11:46:10;6.35;;;1.75;;
80823;SDS011;70538;59.122;37.876;2023-08-24T11:48:38;6.63;;;1.60;;
80823;SDS011;70538;59.122;37.876;2023-08-24T11:51:16;6.28;;;2.10;;
80823;SDS011;70538;59.122;37.876;2023-08-24T11:53:59;6.22;;;2.28;;
80823;SDS011;70538;59.122;37.876;2023-08-24T11:56:28;7.87;;;2.00;;
80823;SDS011;70538;59.122;37.876;2023-08-24T11:58:56;7.10;;;2.13;;
80823;SDS011;70538;59.122;37.876;2023-08-24T12:01:25;7.53;;;3.00;;
80823;SDS011;70538;59.122;37.876;2023-08-24T12:03:54;7.50;;;3.20;;
80823;SDS011;70538;59.122;37.876;2023-08-24T12:06:26;9.00;;;3.10;;
80823;SDS011;70538;59.122;37.876;2023-08-24T12:08:55;8.70;;;2.50;;
80823;SDS011;70538;59.122;37.876;2023-08-24T12:11:24;6.53;;;2.10;;
80823;SDS011;70538;59.122;37.876;2023-08-24T12:13:54;6.00;;;2.20;;
80823;SDS011;70538;59.122;37.876;2023-08-24T12:16:22;5.43;;;1.80;;
80823;SDS011;70538;59.122;37.876;2023-08-24T12:18:51;11.25;;;2.08;;
80823;SDS011;70538;59.122;37.876;2023-08-24T12:21:22;11.37;;;1.90;;
80823;SDS011;70538;59.122;37.876;2023-08-24T12:24:01;8.32;;;1.98;;
80823;SDS011;70538;59.122;37.876;2023-08-24T12:26:33;6.40;;;1.65;;
80823;SDS011;70538;59.122;37.876;2023-08-24T12:29:03;6.00;;;1.90;;
80823;SDS011;70538;59.122;37.876;2023-08-24T12:31:35;9.73;;;1.83;;
80823;SDS011;70538;59.122;37.876;2023-08-24T12:34:07;9.30;;;1.93;;
80823;SDS011;70538;59.122;37.876;2023-08-24T12:36:40;11.02;;;2.60;;
80823;SDS011;70538;59.122;37.876;2023-08-24T12:39:10;9.63;;;1.50;;
80823;SDS011;70538;59.122;37.876;2023-08-24T12:41:42;6.28;;;1.60;;
80823;SDS011;70538;59.122;37.876;2023-08-24T12:44:10;7.57;;;1.85;;
80823;SDS011;70538;59.122;37.876;2023-08-24T12:46:41;5.37;;;2.00;;
80823;SDS011;70538;59.122;37.876;2023-08-24T12:49:09;6.35;;;2.15;;
80823;SDS011;70538;59.122;37.876;2023-08-24T12:51:36;7.65;;;1.88;;
80823;SDS011;70538;59.122;37.876;2023-08-24T12:54:06;8.73;;;1.70;;
80823;SDS011;70538;59.122;37.876;2023-08-24T12:56:38;5.03;;;1.80;;
80823;SDS011;70538;59.122;37.876;2023-08-24T12:59:08;5.47;;;1.70;;
80823;SDS011;70538;59.122;37.876;2023-08-24T13:01:36;7.57;;;1.65;;
80823;SDS011;70538;59.122;37.876;2023-08-24T13:04:04;5.57;;;1.88;;
80823;SDS011;70538;59.122;37.876;2023-08-24T13:06:32;6.18;;;1.80;;
80823;SDS011;70538;59.122;37.876;2023-08-24T13:09:01;9.75;;;1.90;;
80823;SDS011;70538;59.122;37.876;2023-08-24T13:11:30;11.57;;;2.30;;
80823;SDS011;70538;59.122;37.876;2023-08-24T13:14:00;5.50;;;2.38;;
80823;SDS011;70538;59.122;37.876;2023-08-24T13:16:28;7.25;;;2.47;;
80823;SDS011;70538;59.122;37.876;2023-08-24T13:18:57;11.38;;;2.30;;
80823;SDS011;70538;59.122;37.876;2023-08-24T13:21:25;8.93;;;2.08;;
80823;SDS011;70538;59.122;37.876;2023-08-24T13:23:54;6.43;;;1.80;;
80823;SDS011;70538;59.122;37.876;2023-08-24T13:26:22;7.18;;;2.90;;
80823;SDS011;70538;59.122;37.876;2023-08-24T13:28:53;6.47;;;1.95;;
80823;SDS011;70538;59.122;37.876;2023-08-24T13:31:21;7.40;;;2.30;;
80823;SDS011;70538;59.122;37.876;2023-08-24T13:33:49;10.32;;;1.92;;
80823;SDS011;70538;59.122;37.876;2023-08-24T13:36:17;7.03;;;2.10;;
80823;SDS011;70538;59.122;37.876;2023-08-24T13:38:45;11.18;;;2.45;;
80823;SDS011;70538;59.122;37.876;2023-08-24T13:41:13;11.73;;;2.55;;
80823;SDS011;70538;59.122;37.876;2023-08-24T13:43:41;10.43;;;2.35;;
80823;SDS011;70538;59.122;37.876;2023-08-24T13:46:09;8.60;;;1.95;;
80823;SDS011;70538;59.122;37.876;2023-08-24T13:48:38;7.37;;;1.80;;
80823;SDS011;70538;59.122;37.876;2023-08-24T13:51:06;11.05;;;2.30;;
80823;SDS011;70538;59.122;37.876;2023-08-24T13:53:35;8.32;;;2.08;;
80823;SDS011;70538;59.122;37.876;2023-08-24T13:56:04;15.18;;;2.10;;
80823;SDS011;70538;59.122;37.876;2023-08-24T13:58:33;8.55;;;2.00;;
80823;SDS011;70538;59.122;37.876;2023-08-24T14:01:01;6.90;;;1.70;;
80823;SDS011;70538;59.122;37.876;2023-08-24T14:03:30;8.07;;;2.70;;
80823;SDS011;70538;59.122;37.876;2023-08-24T14:05:58;8.05;;;2.15;;
80823;SDS011;70538;59.122;37.876;2023-08-24T14:08:27;7.90;;;1.63;;
80823;SDS011;70538;59.122;37.876;2023-08-24T14:10:55;7.13;;;2.00;;
80823;SDS011;70538;59.122;37.876;2023-08-24T14:13:23;11.30;;;3.37;;
80823;SDS011;70538;59.122;37.876;2023-08-24T14:15:53;9.02;;;2.08;;
80823;SDS011;70538;59.122;37.876;2023-08-24T14:18:23;8.55;;;2.42;;
80823;SDS011;70538;59.122;37.876;2023-08-24T14:20:51;12.93;;;2.20;;
80823;SDS011;70538;59.122;37.876;2023-08-24T14:23:18;9.73;;;2.40;;
80823;SDS011;70538;59.122;37.876;2023-08-24T14:25:46;8.33;;;2.57;;
80823;SDS011;70538;59.122;37.876;2023-08-24T14:28:19;6.65;;;1.90;;
80823;SDS011;70538;59.122;37.876;2023-08-24T14:30:49;6.18;;;2.15;;
80823;SDS011;70538;59.122;37.876;2023-08-24T14:33:17;7.00;;;2.10;;
80823;SDS011;70538;59.122;37.876;2023-08-24T14:35:50;8.27;;;2.00;;
80823;SDS011;70538;59.122;37.876;2023-08-24T14:38:18;9.17;;;2.20;;
80823;SDS011;70538;59.122;37.876;2023-08-24T14:40:46;12.52;;;2.50;;
80823;SDS011;70538;59.122;37.876;2023-08-24T14:43:14;7.20;;;1.98;;
80823;SDS011;70538;59.122;37.876;2023-08-24T14:45:42;12.70;;;2.03;;
80823;SDS011;70538;59.122;37.876;2023-08-24T14:48:10;9.80;;;2.20;;
80823;SDS011;70538;59.122;37.876;2023-08-24T14:50:38;8.80;;;2.20;;
80823;SDS011;70538;59.122;37.876;2023-08-24T14:53:07;8.40;;;2.20;;
80823;SDS011;70538;59.122;37.876;2023-08-24T14:55:39;6.55;;;2.30;;
80823;SDS011;70538;59.122;37.876;2023-08-24T14:58:08;5.85;;;1.98;;
80823;SDS011;70538;59.122;37.876;2023-08-24T15:00:35;6.18;;;2.33;;
80823;SDS011;70538;59.122;37.876;2023-08-24T15:03:08;6.73;;;2.10;;
80823;SDS011;70538;59.122;37.876;2023-08-24T15:05:37;8.10;;;2.30;;